M I D A S
Marine Information and Data Acquisition System
Tripno 1888 of the Zeeleeuw from 2010-05-27 06:36:30 to 2010-05-27 13:59:45
Back to CruiseResearch ActivitiesStationsMapUnderway DataData graphs

EquipmentUnitsComment
TimeDGPSUTC
LatitudeDGPSDM.mWGS84
LongitudeDGPSDM.mWGS84
TemperatureSBE03/SBE38deg celciusITS90
ConductivitySBE21S/mITS90
SalinitySBE21 Practical Salinity Units
ChlorophylAChelsea fluorimeterg/lCalibrated in Aceton
Missing or incorrect values are displayed as -999
Sea surface data collected by the RV Zeeleeuw from 2010-05-27 06:23:34 to 2010-05-27 13:57:33
Time Latitude Longitude Temperature Conductivity Salinity ChlorophylA
2010-05-27 06:24:42 51°13.674 2°55.887 20.6165 0.079625 0.430923 -1.000568
2010-05-27 06:25:42 51°13.687 2°55.792 20.6386 0.079625 0.430944 -1.035392
2010-05-27 06:26:40 51°13.688 2°55.74 20.6206 0.079625 0.430944 -1.035392
2010-05-27 06:27:38 51°13.691 2°55.734 20.6305 0.079625 0.430957 -1.000568
2010-05-27 06:28:39 51°13.719 2°55.734 20.7127 0.079625 0.430971 -1.035392
2010-05-27 06:29:39 51°13.779 2°55.686 20.5664 0.079625 0.430978 -1.000568
2010-05-27 06:30:39 51°13.867 2°55.616 20.5259 0.079625 0.431012 -1.035392
2010-05-27 06:31:38 51°13.972 2°55.54 20.5578 0.079625 0.431019 -1.035392
2010-05-27 06:32:38 51°14.113 2°55.457 20.5338 0.079625 0.431053 -1.000568
2010-05-27 06:33:38 51°14.248 2°55.33 20.4431 0.079625 0.431067 -1.000568
2010-05-27 06:34:38 51°14.376 2°55.178 20.528 0.079625 0.431121 -1.000568
2010-05-27 06:35:38 51°14.516 2°55 20.3753 0.079625 0.431169 -1.000568
2010-05-27 06:36:38 51°14.665 2°54.794 20.3369 0.079625 0.431197 -1.035392
2010-05-27 06:37:38 51°14.82 2°54.579 20.2561 0.079625 0.431238 -1.035392
2010-05-27 06:38:38 51°14.993 2°54.389 20.17 0.079521 0.430668 -1.000568
2010-05-27 06:39:38 51°15.177 2°54.224 20.1903 0.079625 0.431313 -1.000568
2010-05-27 06:40:38 51°15.357 2°54.029 20.2451 0.079521 0.430784 -0.965744
2010-05-27 06:41:38 51°15.531 2°53.818 20.2109 0.079521 0.430832 -1.000568
2010-05-27 06:42:38 51°15.705 2°53.608 20.1873 0.079521 0.430901 -1.035392
2010-05-27 06:43:37 51°15.88 2°53.411 20.2273 0.079521 0.430962 -1.000568
2010-05-27 06:44:38 51°16.065 2°53.225 20.1967 0.079521 0.431038 -1.035392
2010-05-27 06:45:38 51°16.251 2°53.062 20.221 0.079521 0.431106 -1.035392
2010-05-27 06:46:38 51°16.44 2°52.914 20.2057 0.079521 0.431182 -1.000568
2010-05-27 06:47:38 51°16.629 2°52.771 20.2015 0.079521 0.431278 -1.000568
2010-05-27 06:48:38 51°16.815 2°52.629 20.1993 0.079417 0.430789 -1.035392
2010-05-27 06:49:38 51°16.997 2°52.486 20.2116 0.079417 0.430879 -1.035392
2010-05-27 06:50:38 51°17.18 2°52.338 20.235 0.079417 0.430982 -1.035392
2010-05-27 06:51:38 51°17.358 2°52.17 20.2759 0.079417 0.431112 -1.000568
2010-05-27 06:52:38 51°17.469 2°51.876 20.2086 0.079417 0.431167 -1.000568
2010-05-27 06:53:38 51°17.573 2°51.571 20.2179 0.079313 0.430685 -1.035392
2010-05-27 06:54:38 51°17.677 2°51.266 20.2284 0.079313 0.430774 -1.035392
2010-05-27 06:55:38 51°17.77 2°50.99 20.3106 0.079313 0.430884 -1.000568
2010-05-27 06:56:38 51°17.747 2°50.815 20.2904 0.079313 0.431001 -1.035392
2010-05-27 06:57:38 51°17.662 2°50.776 20.2982 0.079313 0.431056 -1.035392
2010-05-27 06:58:38 51°17.618 2°50.837 20.2834 0.079313 0.431132 -1.035392
2010-05-27 06:59:38 51°17.605 2°50.863 20.2808 0.079208 0.430642 -1.035392
2010-05-27 07:00:38 51°17.591 2°50.858 20.3085 0.079208 0.430718 -1.000568
2010-05-27 07:01:38 51°17.577 2°50.848 20.2994 0.079208 0.430787 -1.000568
2010-05-27 07:02:38 51°17.577 2°50.846 20.2992 0.079208 0.430842 -1.000568
2010-05-27 07:03:38 51°17.578 2°50.841 20.3169 0.079209 0.430918 -1.070216
2010-05-27 07:04:38 51°17.579 2°50.839 20.3035 0.079209 0.430966 -1.000568
2010-05-27 07:05:38 51°17.578 2°50.84 20.3116 0.079209 0.431 -1.000568
2010-05-27 07:06:38 51°17.577 2°50.843 20.3132 0.079209 0.431055 -1.035392
2010-05-27 07:07:38 51°17.577 2°50.842 20.3219 0.079104 0.43051 -1.035392
2010-05-27 07:08:38 51°17.578 2°50.84 20.3416 0.079104 0.430552 -1.000568
2010-05-27 07:09:38 51°17.578 2°50.84 20.3477 0.079104 0.4306 -1.000568
2010-05-27 07:10:38 51°17.579 2°50.84 20.3633 0.079104 0.430655 -1.035392
2010-05-27 07:11:38 51°17.578 2°50.841 20.3721 0.079104 0.430696 -1.035392
2010-05-27 07:12:38 51°17.578 2°50.84 20.3871 0.079104 0.430738 -1.035392
2010-05-27 07:13:38 51°17.579 2°50.84 20.4012 0.079104 0.430779 -1.000568
2010-05-27 07:14:38 51°17.579 2°50.84 20.3943 0.079104 0.430813 -1.000568
2010-05-27 07:15:38 51°17.579 2°50.839 20.4167 0.079104 0.430855 -1.035392
2010-05-27 07:16:38 51°17.578 2°50.841 20.407 0.079 0.43033 -1.035392
2010-05-27 07:17:38 51°17.579 2°50.84 20.4235 0.079 0.430365 -1.035392
2010-05-27 07:18:38 51°17.58 2°50.839 20.4184 0.079 0.430406 -1.000568
2010-05-27 07:19:38 51°17.58 2°50.838 20.4442 0.079 0.430454 -1.000568
2010-05-27 07:20:38 51°17.578 2°50.84 20.4408 0.079 0.430509 -1.000568
2010-05-27 07:21:38 51°17.577 2°50.842 20.4604 0.079 0.430551 -0.965744
2010-05-27 07:22:38 51°17.577 2°50.842 20.4722 0.079 0.430599 -1.035392
2010-05-27 07:23:38 51°17.577 2°50.843 20.4877 0.079 0.43064 -1.035392
2010-05-27 07:24:38 51°17.577 2°50.842 20.4829 0.079 0.430675 -1.035392
2010-05-27 07:25:38 51°17.578 2°50.842 20.4906 0.079 0.430709 -1.035392
2010-05-27 07:26:38 51°17.578 2°50.841 20.4983 0.079 0.430744 -1.070216
2010-05-27 07:27:38 51°17.578 2°50.841 20.5029 0.079 0.430778 -1.000568
2010-05-27 07:28:38 51°17.578 2°50.84 20.5262 0.078896 0.430225 -1.035392
2010-05-27 07:29:38 51°17.578 2°50.84 20.5291 0.078896 0.430274 -1.035392
2010-05-27 07:30:38 51°17.579 2°50.839 20.524 0.078896 0.430301 -1.000568
2010-05-27 07:31:38 51°17.579 2°50.84 20.5258 0.078896 0.430356 -1.035392
2010-05-27 07:32:38 51°17.579 2°50.84 20.5358 0.078896 0.430405 -1.000568
2010-05-27 07:33:38 51°17.579 2°50.839 20.5486 0.078896 0.430453 -1.035392
2010-05-27 07:34:38 51°17.58 2°50.84 20.5699 0.078896 0.430508 -1.000568
2010-05-27 07:35:38 51°17.58 2°50.84 20.5913 0.078896 0.430536 -1.070216
2010-05-27 07:36:38 51°17.579 2°50.841 20.5673 0.078896 0.430591 -1.035392
2010-05-27 07:37:38 51°17.58 2°50.839 20.5838 0.078896 0.43064 -1.035392
2010-05-27 07:38:38 51°17.58 2°50.839 20.6011 0.078896 0.430681 -1.000568
2010-05-27 07:39:38 51°17.579 2°50.839 20.5947 0.078792 0.430148 -1.035392
2010-05-27 07:40:38 51°17.577 2°50.84 20.6118 0.078792 0.43019 -1.000568
2010-05-27 07:41:38 51°17.578 2°50.84 20.63 0.078792 0.430224 -1.035392
2010-05-27 07:42:38 51°17.577 2°50.839 20.6211 0.078792 0.430273 -1.035392
2010-05-27 07:43:38 51°17.578 2°50.84 20.6294 0.078792 0.430307 -1.000568
2010-05-27 07:44:38 51°17.577 2°50.839 20.6479 0.078792 0.430356 -1.000568
2010-05-27 07:45:38 51°17.578 2°50.839 20.6545 0.078792 0.430411 -1.000568
2010-05-27 07:46:38 51°17.578 2°50.838 20.6634 0.078792 0.430459 -1.035392
2010-05-27 07:47:38 51°17.579 2°50.838 20.6599 0.078792 0.430508 -1.000568
2010-05-27 07:48:38 51°17.578 2°50.837 20.6848 0.078792 0.430549 -1.000568
2010-05-27 07:49:38 51°17.578 2°50.838 20.6675 0.078792 0.430612 -1.035392
2010-05-27 07:50:38 51°17.577 2°50.838 20.7021 0.078688 0.430064 -1.035392
2010-05-27 07:51:38 51°17.578 2°50.84 20.7086 0.078688 0.430106 -1.035392
2010-05-27 07:52:38 51°17.577 2°50.84 20.7212 0.078688 0.430154 -1.000568
2010-05-27 07:53:38 51°17.577 2°50.841 20.7121 0.078688 0.430203 -1.000568
2010-05-27 07:54:38 51°17.577 2°50.841 20.7068 0.078688 0.430265 -1.000568
2010-05-27 07:55:38 51°17.577 2°50.839 20.7274 0.078688 0.4303 -0.965744
2010-05-27 07:56:38 51°17.578 2°50.84 20.7381 0.078688 0.430355 -1.000568
2010-05-27 07:57:38 51°17.577 2°50.841 20.7489 0.078688 0.43041 -1.035392
2010-05-27 07:58:38 51°17.577 2°50.841 20.7617 0.078688 0.430452 -1.035392
2010-05-27 07:59:38 51°17.577 2°50.84 20.7657 0.078688 0.430494 -1.000568
2010-05-27 08:00:38 51°17.578 2°50.839 20.7668 0.078584 0.42996 -1.035392
2010-05-27 08:01:38 51°17.578 2°50.839 20.7836 0.078584 0.430022 -1.035392
2010-05-27 08:02:38 51°17.577 2°50.838 20.7853 0.078584 0.430063 -1.000568
2010-05-27 08:03:38 51°17.577 2°50.84 20.7805 0.078584 0.430119 -1.000568
2010-05-27 08:04:46 51°17.577 2°50.842 20.7858 0.078584 0.430174 -1.035392
2010-05-27 08:06:01 51°17.576 2°50.841 20.8062 0.078584 0.430237 -1.035392
2010-05-27 08:08:24 51°17.577 2°50.84 20.8372 0.078584 0.430362 -1.035392
2010-05-27 08:09:24 51°17.578 2°50.839 20.8329 0.07848 0.429834 -1.000568
2010-05-27 08:10:24 51°17.578 2°50.838 20.8142 0.07848 0.429875 -1.000568
2010-05-27 08:11:24 51°17.578 2°50.84 20.8373 0.07848 0.429931 -1.035392
2010-05-27 08:12:25 51°17.577 2°50.842 20.831 0.07848 0.430007 -1.035392
2010-05-27 08:13:24 51°17.576 2°50.844 20.8449 0.07848 0.430077 -1.070216
2010-05-27 08:14:24 51°17.576 2°50.845 20.8465 0.07848 0.430132 -1.000568
2010-05-27 08:15:24 51°17.577 2°50.842 20.8603 0.07848 0.430202 -1.035392
2010-05-27 08:16:24 51°17.578 2°50.84 20.8717 0.07848 0.430264 -1.035392
2010-05-27 08:17:24 51°17.579 2°50.838 20.8722 0.078376 0.42975 -1.035392
2010-05-27 08:18:24 51°17.578 2°50.838 20.8633 0.078376 0.429798 -1.035392
2010-05-27 08:19:24 51°17.577 2°50.841 20.8633 0.078376 0.429875 -1.035392
2010-05-27 08:20:24 51°17.577 2°50.843 20.869 0.078376 0.429944 -1.035392
2010-05-27 08:21:24 51°17.577 2°50.843 20.8772 0.078376 0.43 -1.000568
2010-05-27 08:22:24 51°17.577 2°50.842 20.8813 0.078376 0.430069 -1.035392
2010-05-27 08:23:25 51°17.578 2°50.841 20.8897 0.078272 0.429541 -0.965744
2010-05-27 08:24:24 51°17.578 2°50.841 20.8979 0.078272 0.429603 -1.035392
2010-05-27 08:25:25 51°17.577 2°50.843 20.8873 0.078272 0.429659 -1.000568
2010-05-27 08:26:24 51°17.576 2°50.845 20.9036 0.078272 0.429721 -1.000568
2010-05-27 08:27:24 51°17.577 2°50.845 20.9195 0.078272 0.429777 -1.000568
2010-05-27 08:28:24 51°17.577 2°50.843 20.9192 0.078272 0.429847 -1.000568
2010-05-27 08:29:24 51°17.578 2°50.841 20.9215 0.078272 0.429902 -1.035392
2010-05-27 08:30:25 51°17.577 2°50.843 20.9326 0.078272 0.429979 -1.000568
2010-05-27 08:31:24 51°17.576 2°50.845 20.937 0.078168 0.42945 -1.000568
2010-05-27 08:32:24 51°17.576 2°50.846 20.9514 0.078168 0.429512 -1.000568
2010-05-27 08:33:24 51°17.576 2°50.846 20.9545 0.078168 0.429575 -1.035392
2010-05-27 08:34:25 51°17.576 2°50.844 20.9573 0.078168 0.429623 -1.000568
2010-05-27 08:35:24 51°17.578 2°50.842 20.962 0.078168 0.429686 -1.035392
2010-05-27 08:36:24 51°17.578 2°50.842 20.972 0.078168 0.429749 -1.000568
2010-05-27 08:37:24 51°17.577 2°50.842 20.9647 0.078168 0.429812 -1.035392
2010-05-27 08:38:24 51°17.577 2°50.844 20.9851 0.078064 0.429296 -1.000568
2010-05-27 08:39:25 51°17.577 2°50.847 20.9702 0.078064 0.429351 -1.000568
2010-05-27 08:40:24 51°17.576 2°50.848 20.982 0.078064 0.429421 -1.000568
2010-05-27 08:41:24 51°17.577 2°50.845 20.992 0.078064 0.429484 -1.035392
2010-05-27 08:42:24 51°17.578 2°50.843 20.9979 0.078064 0.429546 -1.035392
2010-05-27 08:43:24 51°17.579 2°50.842 20.9926 0.078064 0.429602 -1.035392
2010-05-27 08:44:24 51°17.578 2°50.842 21.0137 0.078064 0.429665 -1.035392
2010-05-27 08:45:24 51°17.577 2°50.845 21.0114 0.078064 0.429742 -1.035392
2010-05-27 08:46:24 51°17.577 2°50.847 21.0233 0.07796 0.429218 -1.035392
2010-05-27 08:47:24 51°17.576 2°50.848 21.0218 0.07796 0.429274 -1.000568
2010-05-27 08:48:25 51°17.576 2°50.845 21.0228 0.07796 0.42933 -1.035392
2010-05-27 08:49:24 51°17.578 2°50.844 21.028 0.07796 0.4294 -1.000568
2010-05-27 08:50:24 51°17.578 2°50.842 21.0213 0.07796 0.429469 -1.035392
2010-05-27 08:51:24 51°17.577 2°50.842 21.0355 0.07796 0.429525 -1.000568
2010-05-27 08:52:24 51°17.577 2°50.846 21.0503 0.077856 0.429015 -1.035392
2010-05-27 08:53:24 51°17.577 2°50.848 21.0399 0.077856 0.429092 -1.035392
2010-05-27 08:54:24 51°17.576 2°50.849 21.0541 0.077856 0.429148 -1.000568
2010-05-27 08:55:24 51°17.575 2°50.849 21.0548 0.077856 0.429225 -1.035392
2010-05-27 08:56:24 51°17.576 2°50.848 21.0592 0.077856 0.429295 -0.965744
2010-05-27 08:57:24 51°17.577 2°50.846 21.0717 0.077856 0.429358 -1.000568
2010-05-27 08:58:24 51°17.577 2°50.845 21.0719 0.077856 0.429413 -1.035392
2010-05-27 08:59:24 51°17.577 2°50.844 21.0779 0.077752 0.428875 -1.000568
2010-05-27 09:00:24 51°17.577 2°50.845 21.0822 0.077752 0.428938 -1.035392
2010-05-27 09:01:24 51°17.576 2°50.847 21.0826 0.077752 0.42898 -1.000568
2010-05-27 09:02:24 51°17.576 2°50.85 21.076 0.077752 0.429057 -1.000568
2010-05-27 09:03:24 51°17.576 2°50.85 21.0864 0.077752 0.42912 -1.035392
2010-05-27 09:04:24 51°17.576 2°50.849 21.0882 0.077752 0.429183 -1.000568
2010-05-27 09:05:24 51°17.577 2°50.848 21.1017 0.077752 0.429246 -1.035392
2010-05-27 09:06:24 51°17.577 2°50.847 21.1127 0.077648 0.428728 -1.000568
2010-05-27 09:07:24 51°17.576 2°50.848 21.1023 0.077648 0.42877 -1.035392
2010-05-27 09:08:24 51°17.576 2°50.85 21.0994 0.077648 0.428853 -1.035392
2010-05-27 09:09:24 51°17.577 2°50.851 21.104 0.077648 0.428916 -1.035392
2010-05-27 09:10:24 51°17.576 2°50.851 21.1183 0.077648 0.428986 -1.000568
2010-05-27 09:11:24 51°17.575 2°50.849 21.1146 0.077648 0.429056 -1.035392
2010-05-27 09:12:24 51°17.577 2°50.849 21.1246 0.077648 0.429154 -1.000568
2010-05-27 09:13:24 51°17.578 2°50.849 21.1399 0.077544 0.428629 -1.035392
2010-05-27 09:14:24 51°17.577 2°50.849 21.137 0.077544 0.428706 -1.000568
2010-05-27 09:15:24 51°17.576 2°50.849 21.1437 0.077544 0.428769 -1.035392
2010-05-27 09:16:24 51°17.576 2°50.85 21.1346 0.077544 0.428846 -1.000568
2010-05-27 09:17:25 51°17.576 2°50.852 21.1492 0.077544 0.428923 -1.000568
2010-05-27 09:18:24 51°17.575 2°50.853 21.1514 0.077544 0.429007 -1.000568
2010-05-27 09:19:24 51°17.575 2°50.853 21.1378 0.077544 0.429084 -1.000568
2010-05-27 09:20:24 51°17.576 2°50.852 21.1493 0.07744 0.428558 -1.000568
2010-05-27 09:21:24 51°17.576 2°50.852 21.154 0.07744 0.428642 -1.000568
2010-05-27 09:22:25 51°17.575 2°50.852 21.162 0.07744 0.428706 -1.000568
2010-05-27 09:23:24 51°17.575 2°50.853 21.1628 0.07744 0.428776 -1.035392
2010-05-27 09:24:24 51°17.576 2°50.854 21.1591 0.07744 0.428867 -1.035392
2010-05-27 09:25:24 51°17.575 2°50.855 21.16 0.07744 0.428937 -1.000568
2010-05-27 09:26:24 51°17.575 2°50.856 21.1556 0.077336 0.428404 -1.035392
2010-05-27 09:27:24 51°17.575 2°50.857 21.1586 0.077336 0.428481 -1.035392
2010-05-27 09:28:24 51°17.575 2°50.856 21.179 0.077336 0.428551 -1.000568
2010-05-27 09:29:24 51°17.575 2°50.855 21.1837 0.077336 0.428642 -1.035392
2010-05-27 09:30:24 51°17.576 2°50.854 21.1785 0.077336 0.428713 -1.000568
2010-05-27 09:31:24 51°17.576 2°50.854 21.1869 0.077336 0.428797 -1.000568
2010-05-27 09:32:24 51°17.576 2°50.855 21.1854 0.077336 0.428867 -1.035392
2010-05-27 09:33:24 51°17.576 2°50.856 21.1976 0.077232 0.428354 -1.035392
2010-05-27 09:34:24 51°17.575 2°50.857 21.1985 0.077232 0.428417 -1.000568
2010-05-27 09:35:24 51°17.576 2°50.858 21.1736 0.077232 0.428488 -1.035392
2010-05-27 09:36:24 51°17.576 2°50.859 21.1839 0.077232 0.428558 -1.035392
2010-05-27 09:37:24 51°17.575 2°50.859 21.2035 0.077232 0.428642 -1.035392
2010-05-27 09:38:24 51°17.575 2°50.859 21.2128 0.077232 0.428706 -1.035392
2010-05-27 09:39:24 51°17.575 2°50.859 21.2191 0.077232 0.428783 -1.035392
2010-05-27 09:40:24 51°17.575 2°50.859 21.209 0.077128 0.428262 -1.000568
2010-05-27 09:41:24 51°17.575 2°50.86 21.2204 0.077128 0.428333 -1.035392
2010-05-27 09:42:24 51°17.575 2°50.861 21.2221 0.077128 0.428396 -1.035392
2010-05-27 09:43:24 51°17.576 2°50.863 21.2117 0.077128 0.428466 -1.000568
2010-05-27 09:44:24 51°17.577 2°50.866 21.2421 0.077128 0.428565 -1.000568
2010-05-27 09:45:24 51°17.577 2°50.868 21.2321 0.077128 0.428643 -1.035392
2010-05-27 09:46:24 51°17.577 2°50.87 21.2327 0.077128 0.428713 -1.035392
2010-05-27 09:47:24 51°17.578 2°50.872 21.2435 0.077024 0.428192 -1.035392
2010-05-27 09:48:24 51°17.579 2°50.874 21.2376 0.077024 0.428262 -1.000568
2010-05-27 09:49:24 51°17.58 2°50.875 21.2303 0.077024 0.428354 -1.035392
2010-05-27 09:50:24 51°17.581 2°50.876 21.24 0.077024 0.428424 -1.035392
2010-05-27 09:51:24 51°17.581 2°50.876 21.2263 0.077024 0.428502 -1.035392
2010-05-27 09:52:24 51°17.58 2°50.876 21.2375 0.077024 0.42858 -1.000568
2010-05-27 09:53:24 51°17.579 2°50.876 21.2386 0.07692 0.428051 -1.035392
2010-05-27 09:54:24 51°17.578 2°50.874 21.2388 0.07692 0.428142 -1.000568
2010-05-27 09:55:24 51°17.579 2°50.873 21.2383 0.07692 0.42822 -1.000568
2010-05-27 09:56:24 51°17.579 2°50.872 21.2444 0.07692 0.428305 -1.000568
2010-05-27 09:57:24 51°17.579 2°50.872 21.2394 0.07692 0.428404 -1.000568
2010-05-27 09:58:24 51°17.579 2°50.873 21.2434 0.07692 0.428489 -1.035392
2010-05-27 09:59:24 51°17.579 2°50.875 21.2448 0.07692 0.428573 -1.035392
2010-05-27 10:00:24 51°17.58 2°50.877 21.2562 0.076816 0.428058 -1.000568
2010-05-27 10:01:24 51°17.581 2°50.878 21.2532 0.076816 0.42815 -1.035392
2010-05-27 10:02:24 51°17.582 2°50.88 21.2528 0.076816 0.428249 -1.000568
2010-05-27 10:03:24 51°17.584 2°50.882 21.2526 0.076816 0.428334 -1.035392
2010-05-27 10:04:24 51°17.587 2°50.885 21.2439 0.076816 0.428426 -1.000568
2010-05-27 10:05:24 51°17.59 2°50.888 21.2437 0.076711 0.427903 -1.000568
2010-05-27 10:06:24 51°17.594 2°50.891 21.2607 0.076711 0.427987 -1.000568
2010-05-27 10:07:24 51°17.596 2°50.893 21.2588 0.076711 0.428072 -1.035392
2010-05-27 10:08:24 51°17.598 2°50.894 21.2574 0.076711 0.42815 -1.000568
2010-05-27 10:09:24 51°17.598 2°50.893 21.2506 0.076712 0.428235 -1.000568
2010-05-27 10:10:24 51°17.598 2°50.894 21.2616 0.076712 0.428327 -1.000568
2010-05-27 10:11:24 51°17.598 2°50.895 21.2572 0.076712 0.428405 -1.035392
2010-05-27 10:12:24 51°17.598 2°50.895 21.2636 0.076607 0.427896 -1.035392
2010-05-27 10:14:26 51°17.598 2°50.895 21.2563 0.076607 0.428073 -1.000568
2010-05-27 10:16:04 51°17.6 2°50.895 21.256 0.076607 0.428236 -1.035392
2010-05-27 10:17:11 51°17.601 2°50.894 21.2641 0.076607 0.42835 -1.035392
2010-05-27 10:18:11 51°17.602 2°50.892 21.2658 0.076503 0.42784 -1.000568
2010-05-27 10:19:11 51°17.604 2°50.891 21.2659 0.076503 0.427939 -1.035392
2010-05-27 10:20:11 51°17.604 2°50.89 21.2678 0.076503 0.428038 -1.000568
2010-05-27 10:21:11 51°17.605 2°50.89 21.2604 0.076503 0.428138 -1.000568
2010-05-27 10:22:11 51°17.605 2°50.891 21.2457 0.076503 0.428237 -1.000568
2010-05-27 10:23:11 51°17.605 2°50.892 21.27 0.076503 0.428344 -1.035392
2010-05-27 10:24:11 51°17.605 2°50.891 21.2741 0.076399 0.427847 -1.035392
2010-05-27 10:25:11 51°17.606 2°50.891 21.2662 0.076399 0.427954 -1.000568
2010-05-27 10:26:11 51°17.607 2°50.889 21.2709 0.076399 0.428068 -1.035392
2010-05-27 10:27:10 51°17.608 2°50.889 21.2615 0.076399 0.428161 -1.000568
2010-05-27 10:28:11 51°17.608 2°50.889 21.2639 0.076399 0.428253 -1.035392
2010-05-27 10:29:11 51°17.608 2°50.89 21.2676 0.076295 0.427749 -1.035392
2010-05-27 10:30:11 51°17.608 2°50.891 21.2769 0.076295 0.427849 -1.035392
2010-05-27 10:31:11 51°17.608 2°50.891 21.2677 0.076295 0.427955 -1.000568
2010-05-27 10:32:11 51°17.61 2°50.891 21.2719 0.076295 0.428041 -1.035392
2010-05-27 10:33:13 51°17.61 2°50.89 21.2778 0.076295 0.428141 -1.000568
2010-05-27 10:34:12 51°17.61 2°50.889 21.285 0.076191 0.427636 -1.000568
2010-05-27 10:35:11 51°17.611 2°50.889 21.2762 0.076191 0.427729 -1.035392
2010-05-27 10:36:10 51°17.611 2°50.89 21.2793 0.076191 0.427829 -1.000568
2010-05-27 10:37:11 51°17.611 2°50.89 21.2607 0.076191 0.427928 -1.000568
2010-05-27 10:38:11 51°17.611 2°50.891 21.2784 0.076191 0.428021 -1.000568
2010-05-27 10:39:11 51°17.61 2°50.891 21.2865 0.076191 0.428121 -1.000568
2010-05-27 10:40:11 51°17.611 2°50.891 21.2857 0.076191 0.428207 -1.070216
2010-05-27 10:41:10 51°17.611 2°50.891 21.2902 0.076087 0.427694 -1.035392
2010-05-27 10:42:11 51°17.611 2°50.889 21.2935 0.076087 0.427773 -1.035392
2010-05-27 10:43:11 51°17.612 2°50.888 21.2962 0.076087 0.427859 -1.000568
2010-05-27 10:44:11 51°17.612 2°50.887 21.2876 0.076087 0.427937 -1.035392
2010-05-27 10:45:11 51°17.613 2°50.887 21.2862 0.076087 0.428016 -1.035392
2010-05-27 10:46:11 51°17.613 2°50.889 21.2836 0.076087 0.428095 -1.035392
2010-05-27 10:47:11 51°17.613 2°50.891 21.3068 0.076087 0.428181 -1.035392
2010-05-27 10:48:11 51°17.612 2°50.892 21.2972 0.075983 0.427653 -1.035392
2010-05-27 10:49:11 51°17.612 2°50.892 21.2935 0.075983 0.427732 -1.035392
2010-05-27 10:50:11 51°17.612 2°50.891 21.3026 0.075983 0.42781 -1.035392
2010-05-27 10:51:11 51°17.613 2°50.89 21.2979 0.075983 0.427875 -1.000568
2010-05-27 10:52:11 51°17.613 2°50.889 21.3053 0.075983 0.427954 -1.035392
2010-05-27 10:53:11 51°17.613 2°50.888 21.3031 0.075983 0.428033 -1.035392
2010-05-27 10:54:11 51°17.613 2°50.888 21.3134 0.075983 0.428097 -1.000568
2010-05-27 10:55:11 51°17.613 2°50.888 21.2998 0.075879 0.427562 -1.035392
2010-05-27 10:56:11 51°17.613 2°50.889 21.2989 0.075879 0.427626 -1.000568
2010-05-27 10:57:11 51°17.613 2°50.889 21.3033 0.075879 0.427683 -1.000568
2010-05-27 10:58:11 51°17.613 2°50.889 21.3103 0.075879 0.427734 -1.000568
2010-05-27 10:59:11 51°17.613 2°50.89 21.3097 0.075879 0.427791 -1.070216
2010-05-27 11:00:11 51°17.613 2°50.89 21.3102 0.075879 0.427834 -1.000568
2010-05-27 11:01:11 51°17.613 2°50.89 21.2913 0.075879 0.427899 -1.035392
2010-05-27 11:02:11 51°17.614 2°50.889 21.314 0.075879 0.427956 -1.000568
2010-05-27 11:03:11 51°17.614 2°50.888 21.3176 0.075879 0.428021 -1.000568
2010-05-27 11:04:11 51°17.614 2°50.887 21.3218 0.075775 0.427485 -1.000568
2010-05-27 11:05:11 51°17.615 2°50.886 21.326 0.075775 0.427549 -1.035392
2010-05-27 11:06:14 51°17.615 2°50.886 21.3202 0.075775 0.427635 -1.035392
2010-05-27 11:07:12 51°17.615 2°50.887 21.3211 0.075775 0.427729 -1.000568
2010-05-27 11:08:11 51°17.614 2°50.888 21.312 0.075775 0.427793 -1.035392
2010-05-27 11:09:11 51°17.614 2°50.889 21.328 0.075775 0.42788 -1.000568
2010-05-27 11:10:11 51°17.615 2°50.888 21.3245 0.075775 0.427966 -1.000568
2010-05-27 11:11:11 51°17.615 2°50.887 21.3247 0.075775 0.428045 -1.000568
2010-05-27 11:12:11 51°17.616 2°50.887 21.3268 0.075671 0.427508 -1.035392
2010-05-27 11:13:11 51°17.616 2°50.886 21.311 0.075671 0.427587 -0.965744
2010-05-27 11:14:11 51°17.615 2°50.885 21.3358 0.075671 0.427674 -1.035392
2010-05-27 11:15:11 51°17.616 2°50.886 21.3162 0.075671 0.427753 -1.000568
2010-05-27 11:16:10 51°17.616 2°50.887 21.3174 0.075671 0.427818 -1.035392
2010-05-27 11:17:11 51°17.615 2°50.888 21.3279 0.075671 0.427883 -1.000568
2010-05-27 11:18:11 51°17.615 2°50.888 21.3156 0.075671 0.427955 -1.035392
2010-05-27 11:19:11 51°17.615 2°50.889 21.3383 0.075671 0.428034 -1.035392
2010-05-27 11:20:11 51°17.615 2°50.888 21.3353 0.075567 0.427489 -1.035392
2010-05-27 11:21:11 51°17.615 2°50.887 21.3333 0.075567 0.427561 -1.000568
2010-05-27 11:22:11 51°17.616 2°50.886 21.3398 0.075567 0.427648 -1.070216
2010-05-27 11:23:10 51°17.616 2°50.885 21.3474 0.075567 0.427734 -1.035392
2010-05-27 11:24:11 51°17.616 2°50.884 21.3437 0.075567 0.42785 -1.035392
2010-05-27 11:25:10 51°17.616 2°50.884 21.3377 0.075567 0.427936 -1.035392
2010-05-27 11:26:11 51°17.616 2°50.886 21.3433 0.075463 0.427427 -1.000568
2010-05-27 11:27:11 51°17.615 2°50.886 21.3295 0.075463 0.427542 -1.035392
2010-05-27 11:28:11 51°17.616 2°50.885 21.3463 0.075463 0.427622 -1.000568
2010-05-27 11:29:11 51°17.616 2°50.885 21.3498 0.075463 0.42773 -1.000568
2010-05-27 11:30:11 51°17.615 2°50.885 21.3534 0.075463 0.427831 -1.035392
2010-05-27 11:31:11 51°17.616 2°50.886 21.3316 0.075463 0.427925 -1.000568
2010-05-27 11:32:11 51°17.616 2°50.886 21.3296 0.075463 0.428034 -1.035392
2010-05-27 11:33:11 51°17.615 2°50.886 21.3342 0.075359 0.427509 -1.000568
2010-05-27 11:34:11 51°17.615 2°50.886 21.3451 0.075359 0.427618 -1.000568
2010-05-27 11:35:11 51°17.616 2°50.885 21.3548 0.075359 0.427748 -1.035392
2010-05-27 11:36:11 51°17.616 2°50.885 21.3495 0.075359 0.427864 -1.035392
2010-05-27 11:37:11 51°17.615 2°50.885 21.3517 0.075359 0.427972 -1.070216
2010-05-27 11:38:11 51°17.615 2°50.886 21.3557 0.075255 0.427491 -1.000568
2010-05-27 11:39:11 51°17.615 2°50.887 21.3688 0.075255 0.427621 -1.000568
2010-05-27 11:40:11 51°17.616 2°50.886 21.3559 0.075255 0.42773 -1.035392
2010-05-27 11:41:11 51°17.616 2°50.885 21.3535 0.075255 0.427868 -1.000568
2010-05-27 11:42:11 51°17.616 2°50.883 21.3532 0.075255 0.427998 -1.035392
2010-05-27 11:43:11 51°17.616 2°50.883 21.3528 0.075255 0.428114 -1.000568
2010-05-27 11:44:11 51°17.615 2°50.885 21.3643 0.075151 0.427647 -1.000568
2010-05-27 11:45:11 51°17.616 2°50.886 21.3525 0.075151 0.42777 -1.000568
2010-05-27 11:46:11 51°17.616 2°50.887 21.3619 0.075151 0.427886 -1.035392
2010-05-27 11:47:11 51°17.616 2°50.887 21.3615 0.075047 0.427411 -1.035392
2010-05-27 11:48:11 51°17.615 2°50.887 21.3748 0.075047 0.427556 -1.035392
2010-05-27 11:49:11 51°17.616 2°50.887 21.3695 0.075047 0.427672 -1.000568
2010-05-27 11:50:11 51°17.616 2°50.885 21.3755 0.075047 0.427811 -1.035392
2010-05-27 11:51:11 51°17.616 2°50.884 21.3664 0.075047 0.427942 -1.000568
2010-05-27 11:52:11 51°17.616 2°50.885 21.3703 0.074943 0.427458 -1.000568
2010-05-27 11:53:11 51°17.616 2°50.887 21.3671 0.074943 0.427582 -1.035392
2010-05-27 11:54:11 51°17.616 2°50.889 21.37 0.074943 0.427721 -1.035392
2010-05-27 11:55:11 51°17.616 2°50.888 21.3846 0.074943 0.427866 -1.000568
2010-05-27 11:56:11 51°17.616 2°50.887 21.3806 0.074839 0.427382 -1.035392
2010-05-27 11:57:11 51°17.616 2°50.887 21.3766 0.074839 0.427514 -1.035392
2010-05-27 11:58:11 51°17.616 2°50.887 21.3644 0.074839 0.42763 -1.035392
2010-05-27 11:59:11 51°17.616 2°50.887 21.3676 0.074839 0.42774 -1.070216
2010-05-27 12:00:11 51°17.616 2°50.887 21.3639 0.074735 0.427233 -1.035392
2010-05-27 12:01:11 51°17.616 2°50.886 21.3519 0.074735 0.427336 -1.000568
2010-05-27 12:02:11 51°17.616 2°50.888 21.365 0.074735 0.427423 -1.035392
2010-05-27 12:03:11 51°17.615 2°50.889 21.3648 0.074735 0.42754 -1.035392
2010-05-27 12:04:11 51°17.615 2°50.89 21.3589 0.074735 0.427628 -1.000568
2010-05-27 12:05:11 51°17.616 2°50.89 21.3707 0.074735 0.427752 -1.035392
2010-05-27 12:06:11 51°17.615 2°50.89 21.3733 0.074631 0.42726 -1.035392
2010-05-27 12:07:11 51°17.615 2°50.889 21.3682 0.074631 0.42737 -1.035392
2010-05-27 12:08:11 51°17.616 2°50.889 21.3734 0.074631 0.427479 -1.000568
2010-05-27 12:09:11 51°17.616 2°50.889 21.3741 0.074631 0.427597 -1.000568
2010-05-27 12:10:11 51°17.615 2°50.889 21.3695 0.074631 0.427721 -1.035392
2010-05-27 12:11:11 51°17.615 2°50.889 21.3789 0.074631 0.427846 -1.000568
2010-05-27 12:12:11 51°17.615 2°50.888 21.3704 0.074527 0.427352 -1.035392
2010-05-27 12:13:11 51°17.615 2°50.887 21.3591 0.074527 0.42747 -1.000568
2010-05-27 12:14:11 51°17.616 2°50.887 21.3692 0.074527 0.427587 -1.000568
2010-05-27 12:15:11 51°17.616 2°50.887 21.3734 0.074527 0.427712 -1.035392
2010-05-27 12:16:11 51°17.616 2°50.888 21.3698 0.074527 0.427837 -1.070216
2010-05-27 12:17:11 51°17.615 2°50.889 21.3798 0.074423 0.427358 -1.000568
2010-05-27 12:18:11 51°17.616 2°50.889 21.3614 0.074423 0.42749 -1.035392
2010-05-27 12:19:11 51°17.616 2°50.887 21.3539 0.074423 0.427622 -1.035392
2010-05-27 12:20:13 51°17.616 2°50.886 21.3745 0.074423 0.427762 -1.035392
2010-05-27 12:21:13 51°17.616 2°50.887 21.3807 0.074319 0.42729 -1.035392
2010-05-27 12:22:13 51°17.617 2°50.887 21.3824 0.074319 0.427422 -1.070216
2010-05-27 12:23:13 51°17.616 2°50.888 21.3731 0.074319 0.427584 -1.000568
2010-05-27 12:24:13 51°17.616 2°50.889 21.3633 0.074319 0.427717 -1.070216
2010-05-27 12:25:13 51°17.616 2°50.888 21.3623 0.074215 0.427251 -1.035392
2010-05-27 12:26:13 51°17.616 2°50.888 21.3787 0.074215 0.427399 -1.035392
2010-05-27 12:27:13 51°17.615 2°50.887 21.3771 0.074215 0.427539 -1.035392
2010-05-27 12:28:13 51°17.615 2°50.886 21.3775 0.074215 0.427694 -1.000568
2010-05-27 12:29:13 51°17.615 2°50.887 21.3842 0.074111 0.427242 -1.035392
2010-05-27 12:30:13 51°17.615 2°50.889 21.3817 0.074111 0.427405 -1.000568
2010-05-27 12:31:13 51°17.614 2°50.89 21.3693 0.074111 0.427545 -1.000568
2010-05-27 12:32:13 51°17.614 2°50.89 21.3831 0.074111 0.427715 -1.000568
2010-05-27 12:33:13 51°17.614 2°50.89 21.3838 0.074007 0.427248 -1.035392
2010-05-27 12:34:13 51°17.615 2°50.889 21.3771 0.074007 0.427419 -1.000568
2010-05-27 12:35:13 51°17.615 2°50.888 21.38 0.074007 0.427559 -1.035392
2010-05-27 12:36:13 51°17.616 2°50.887 21.3822 0.073902 0.427107 -1.000568
2010-05-27 12:37:13 51°17.616 2°50.886 21.3809 0.073902 0.42727 -1.035392
2010-05-27 12:38:13 51°17.616 2°50.886 21.3841 0.073902 0.427455 -1.000568
2010-05-27 12:39:13 51°17.616 2°50.886 21.3742 0.073902 0.427604 -1.000568
2010-05-27 12:40:13 51°17.616 2°50.885 21.3804 0.073798 0.427158 -1.000568
2010-05-27 12:41:13 51°17.616 2°50.885 21.3667 0.073798 0.427329 -1.000568
2010-05-27 12:42:13 51°17.616 2°50.885 21.3733 0.073798 0.427485 -1.035392
2010-05-27 12:43:13 51°17.617 2°50.885 21.3862 0.073798 0.427663 -1.035392
2010-05-27 12:44:13 51°17.616 2°50.886 21.3776 0.073694 0.427202 -1.000568
2010-05-27 12:45:13 51°17.616 2°50.887 21.3642 0.073694 0.427366 -1.035392
2010-05-27 12:46:13 51°17.616 2°50.888 21.3783 0.073694 0.427544 -1.035392
2010-05-27 12:47:13 51°17.616 2°50.887 21.3781 0.07359 0.427075 -1.035392
2010-05-27 12:48:13 51°17.616 2°50.886 21.3745 0.07359 0.427246 -1.000568
2010-05-27 12:49:13 51°17.616 2°50.885 21.3763 0.07359 0.427403 -1.070216
2010-05-27 12:50:13 51°17.616 2°50.885 21.3773 0.07359 0.427582 -1.000568
2010-05-27 12:51:13 51°17.616 2°50.886 21.3756 0.073486 0.427112 -1.035392
2010-05-27 12:52:13 51°17.617 2°50.886 21.3715 0.073486 0.427269 -1.000568
2010-05-27 12:53:13 51°17.617 2°50.886 21.3712 0.073486 0.427426 -1.000568
2010-05-27 12:54:13 51°17.617 2°50.884 21.3786 0.073382 0.426963 -1.000568
2010-05-27 12:55:13 51°17.616 2°50.884 21.3826 0.073382 0.42712 -1.035392
2010-05-27 12:56:13 51°17.617 2°50.883 21.3804 0.073382 0.427292 -1.035392
2010-05-27 12:57:13 51°17.617 2°50.885 21.3861 0.073382 0.427449 -1.000568
2010-05-27 12:58:13 51°17.617 2°50.885 21.384 0.073278 0.426978 -1.035392
2010-05-27 12:59:13 51°17.616 2°50.886 21.3808 0.073278 0.427136 -1.035392
2010-05-27 13:00:13 51°17.616 2°50.886 21.3833 0.073278 0.4273 -1.000568
2010-05-27 13:01:13 51°17.616 2°50.886 21.3707 0.073278 0.427458 -1.000568
2010-05-27 13:02:13 51°17.616 2°50.886 21.3759 0.073174 0.426986 -1.000568
2010-05-27 13:03:13 51°17.617 2°50.885 21.357 0.073174 0.427144 -1.000568
2010-05-27 13:04:13 51°17.616 2°50.885 21.3877 0.073174 0.427294 -1.035392
2010-05-27 13:05:13 51°17.616 2°50.885 21.371 0.073174 0.427444 -1.035392
2010-05-27 13:06:13 51°17.616 2°50.885 21.3843 0.07307 0.42698 -1.035392
2010-05-27 13:07:13 51°17.617 2°50.886 21.3815 0.07307 0.427137 -1.035392
2010-05-27 13:08:13 51°17.617 2°50.886 21.3781 0.07307 0.42728 -1.000568
2010-05-27 13:09:13 51°17.617 2°50.886 21.367 0.072966 0.426808 -1.000568
2010-05-27 13:10:13 51°17.617 2°50.886 21.3675 0.072966 0.426966 -1.035392
2010-05-27 13:11:13 51°17.617 2°50.885 21.36 0.072966 0.427124 -1.035392
2010-05-27 13:12:13 51°17.617 2°50.885 21.3693 0.072966 0.427282 -1.000568
2010-05-27 13:13:13 51°17.617 2°50.884 21.375 0.072862 0.426816 -1.035392
2010-05-27 13:14:13 51°17.617 2°50.884 21.3664 0.072862 0.426967 -1.035392
2010-05-27 13:15:13 51°17.617 2°50.884 21.3727 0.072862 0.427141 -1.000568
2010-05-27 13:16:13 51°17.618 2°50.884 21.3781 0.072862 0.427314 -1.035392
2010-05-27 13:17:13 51°17.617 2°50.884 21.3767 0.072758 0.42684 -1.070216
2010-05-27 13:18:13 51°17.617 2°50.885 21.3597 0.072758 0.426976 -1.035392
2010-05-27 13:19:13 51°17.617 2°50.885 21.3691 0.072758 0.427143 -1.035392
2010-05-27 13:20:13 51°17.617 2°50.885 21.3635 0.072758 0.427271 -1.035392
2010-05-27 13:21:13 51°17.617 2°50.885 21.3665 0.072654 0.426789 -1.035392
2010-05-27 13:22:13 51°17.617 2°50.884 21.359 0.072654 0.426925 -1.035392
2010-05-27 13:23:13 51°17.614 2°50.878 21.3644 0.072654 0.427077 -1.035392
2010-05-27 13:24:13 51°17.614 2°50.875 21.358 0.072654 0.427205 -1.035392
2010-05-27 13:25:13 51°17.617 2°50.877 21.3484 0.07255 0.4267 -1.000568
2010-05-27 13:26:13 51°17.607 2°50.867 21.3636 0.07255 0.426874 -1.035392
2010-05-27 13:27:13 51°17.576 2°50.907 21.371 0.07255 0.427003 -1.035392
2010-05-27 13:28:13 51°17.565 2°51.068 21.3365 0.07255 0.427102 -1.000568
2010-05-27 13:29:13 51°17.544 2°51.341 21.3282 0.07255 0.427269 -1.035392
2010-05-27 13:30:13 51°17.496 2°51.661 21.3207 0.072446 0.426763 -1.035392
2010-05-27 13:31:13 51°17.421 2°51.994 21.3138 0.072446 0.426839 -1.035392
2010-05-27 13:32:13 51°17.283 2°52.261 21.3055 0.072446 0.426877 -1.035392
2010-05-27 13:33:13 51°17.103 2°52.441 21.33 0.072446 0.426877 -1.000568
2010-05-27 13:34:13 51°16.916 2°52.596 21.3283 0.072446 0.426937 -1.035392
2010-05-27 13:35:13 51°16.727 2°52.738 21.3311 0.072342 0.426348 -1.035392
2010-05-27 13:36:13 51°16.536 2°52.887 21.3277 0.072342 0.426401 -1.035392
2010-05-27 13:37:13 51°16.345 2°53.037 21.3381 0.072342 0.426446 -1.035392
2010-05-27 13:38:13 51°16.154 2°53.194 21.3313 0.072342 0.426499 -1.035392
2010-05-27 13:39:13 51°15.964 2°53.35 21.3345 0.072342 0.426545 -1.035392
2010-05-27 13:40:13 51°15.774 2°53.517 21.3346 0.072342 0.426568 -1.070216
2010-05-27 13:41:13 51°15.591 2°53.706 21.3381 0.072342 0.42659 -1.000568
2010-05-27 13:42:13 51°15.41 2°53.899 21.3447 0.072342 0.426628 -1.070216
2010-05-27 13:43:13 51°15.237 2°54.11 21.3359 0.072342 0.426651 -1.070216
2010-05-27 13:44:13 51°15.069 2°54.333 21.3535 0.072342 0.426704 -1.035392
2010-05-27 13:45:13 51°14.913 2°54.579 21.3147 0.072342 0.426704 -1.000568
2010-05-27 13:46:13 51°14.746 2°54.802 21.3416 0.072342 0.426765 -1.000568
2010-05-27 13:47:13 51°14.569 2°54.999 21.3446 0.072342 0.426788 -1.035392
2010-05-27 13:48:13 51°14.377 2°55.148 21.3586 0.072342 0.426849 -1.000568
2010-05-27 13:49:13 51°14.253 2°55.283 21.3742 0.072342 0.426887 -1.035392
2010-05-27 13:50:13 51°14.178 2°55.384 21.3914 0.072238 0.426273 -1.035392
2010-05-27 13:51:13 51°14.079 2°55.481 21.4027 0.072342 0.426971 -1.035392
2010-05-27 13:52:13 51°13.967 2°55.565 21.3812 0.072238 0.426365 -1.035392
2010-05-27 13:53:13 51°13.87 2°55.622 21.406 0.072238 0.426395 -1.035392
2010-05-27 13:54:13 51°13.777 2°55.692 21.3949 0.072238 0.42641 -1.000568
2010-05-27 13:55:13 51°13.71 2°55.796 21.4295 0.072238 0.426448 -1.000568
2010-05-27 13:56:13 51°13.679 2°55.898 21.4142 0.072238 0.426479 -1.000568
2010-05-27 13:57:13 51°13.663 2°55.954 21.4022 0.072238 0.426502 -1.035392